Terminal Aerodrome Forecast
Issued by NWS

Home | Current Version | Previous Version | Text Only | Print | Product List | Glossary On
Versions: 1 2 3 4 5 6 7 8 9 10 11 12 13 14 15 16 17 18 19 20 21 22 23 24 25 26 27 28 29 30
000
FTUS41 KOKX 030539
TAFTEB
TAF
KTEB 030539Z 0306/0406 VRB03KT P6SM OVC020
      TEMPO 0306/0309 SCT020 OVC050
     FM031300 04007KT P6SM SCT025 OVC060
      TEMPO 0313/0315 BKN025
     FM031700 10007KT P6SM SCT060 BKN250
     FM032000 14007KT P6SM BKN250
     FM040300 10004KT P6SM SCT080 BKN200=

USA.gov is the U.S. government's official web portal to all federal, state and local government web resources and services.